sensor_id;sensor_type;location;lat;lon;timestamp;P1;durP1;ratioP1;P2;durP2;ratioP2
75311;SDS011;63906;55.686;37.532;2023-02-28T00:02:45;7.97;;;4.15;;
75311;SDS011;63906;55.686;37.532;2023-02-28T00:07:46;8.02;;;3.95;;
75311;SDS011;63906;55.686;37.532;2023-02-28T00:12:47;7.60;;;3.03;;
75311;SDS011;63906;55.686;37.532;2023-02-28T00:17:48;7.68;;;4.35;;
75311;SDS011;63906;55.686;37.532;2023-02-28T00:22:50;7.10;;;3.63;;
75311;SDS011;63906;55.686;37.532;2023-02-28T00:27:52;9.43;;;4.20;;
75311;SDS011;63906;55.686;37.532;2023-02-28T00:33:03;7.70;;;3.47;;
75311;SDS011;63906;55.686;37.532;2023-02-28T00:38:03;7.43;;;2.77;;
75311;SDS011;63906;55.686;37.532;2023-02-28T00:43:04;5.25;;;1.48;;
75311;SDS011;63906;55.686;37.532;2023-02-28T00:48:04;14.38;;;5.65;;
75311;SDS011;63906;55.686;37.532;2023-02-28T00:53:06;11.50;;;4.10;;
75311;SDS011;63906;55.686;37.532;2023-02-28T00:58:06;4.30;;;2.30;;
75311;SDS011;63906;55.686;37.532;2023-02-28T01:03:07;7.10;;;2.53;;
75311;SDS011;63906;55.686;37.532;2023-02-28T01:08:07;6.75;;;3.10;;
75311;SDS011;63906;55.686;37.532;2023-02-28T01:13:08;5.60;;;2.03;;
75311;SDS011;63906;55.686;37.532;2023-02-28T01:18:08;6.30;;;2.80;;
75311;SDS011;63906;55.686;37.532;2023-02-28T01:23:09;11.83;;;3.10;;
75311;SDS011;63906;55.686;37.532;2023-02-28T01:28:09;5.73;;;2.77;;
75311;SDS011;63906;55.686;37.532;2023-02-28T01:33:10;5.70;;;2.73;;
75311;SDS011;63906;55.686;37.532;2023-02-28T01:38:10;7.43;;;2.97;;
75311;SDS011;63906;55.686;37.532;2023-02-28T01:43:20;3.37;;;1.70;;
75311;SDS011;63906;55.686;37.532;2023-02-28T01:48:29;2.47;;;1.85;;
75311;SDS011;63906;55.686;37.532;2023-02-28T01:53:35;5.68;;;2.78;;
75311;SDS011;63906;55.686;37.532;2023-02-28T01:58:44;2.67;;;1.48;;
75311;SDS011;63906;55.686;37.532;2023-02-28T02:03:44;4.60;;;1.48;;
75311;SDS011;63906;55.686;37.532;2023-02-28T02:08:45;4.70;;;2.40;;
75311;SDS011;63906;55.686;37.532;2023-02-28T02:36:01;4.65;;;2.67;;
75311;SDS011;63906;55.686;37.532;2023-02-28T02:46:29;4.80;;;2.55;;
75311;SDS011;63906;55.686;37.532;2023-02-28T02:51:34;4.60;;;2.60;;
75311;SDS011;63906;55.686;37.532;2023-02-28T02:56:38;5.05;;;2.83;;
75311;SDS011;63906;55.686;37.532;2023-02-28T03:01:41;5.97;;;3.33;;
75311;SDS011;63906;55.686;37.532;2023-02-28T03:06:42;7.47;;;3.85;;
75311;SDS011;63906;55.686;37.532;2023-02-28T03:11:42;4.33;;;2.30;;
75311;SDS011;63906;55.686;37.532;2023-02-28T03:27:04;5.25;;;2.67;;
75311;SDS011;63906;55.686;37.532;2023-02-28T03:37:39;4.38;;;2.13;;
75311;SDS011;63906;55.686;37.532;2023-02-28T03:48:07;7.13;;;3.17;;
75311;SDS011;63906;55.686;37.532;2023-02-28T03:53:13;6.53;;;1.80;;
75311;SDS011;63906;55.686;37.532;2023-02-28T03:58:31;5.78;;;2.22;;
75311;SDS011;63906;55.686;37.532;2023-02-28T04:03:37;3.95;;;1.83;;
75311;SDS011;63906;55.686;37.532;2023-02-28T04:08:38;3.60;;;2.03;;
75311;SDS011;63906;55.686;37.532;2023-02-28T04:13:39;4.32;;;2.45;;
75311;SDS011;63906;55.686;37.532;2023-02-28T04:18:40;7.60;;;2.83;;
75311;SDS011;63906;55.686;37.532;2023-02-28T04:23:43;6.40;;;2.78;;
75311;SDS011;63906;55.686;37.532;2023-02-28T04:28:43;3.65;;;1.58;;
75311;SDS011;63906;55.686;37.532;2023-02-28T04:33:44;3.57;;;2.10;;
75311;SDS011;63906;55.686;37.532;2023-02-28T04:38:44;3.63;;;1.95;;
75311;SDS011;63906;55.686;37.532;2023-02-28T04:43:45;5.65;;;2.83;;
75311;SDS011;63906;55.686;37.532;2023-02-28T04:48:46;4.50;;;2.80;;
75311;SDS011;63906;55.686;37.532;2023-02-28T04:53:47;4.03;;;2.25;;
75311;SDS011;63906;55.686;37.532;2023-02-28T04:58:48;1.08;;;0.82;;
75311;SDS011;63906;55.686;37.532;2023-02-28T05:03:49;3.65;;;2.17;;
75311;SDS011;63906;55.686;37.532;2023-02-28T05:08:51;4.00;;;1.35;;
75311;SDS011;63906;55.686;37.532;2023-02-28T05:13:52;4.20;;;2.10;;
75311;SDS011;63906;55.686;37.532;2023-02-28T05:18:54;3.58;;;2.03;;
75311;SDS011;63906;55.686;37.532;2023-02-28T05:23:56;3.20;;;1.40;;
75311;SDS011;63906;55.686;37.532;2023-02-28T05:28:59;3.78;;;1.83;;
75311;SDS011;63906;55.686;37.532;2023-02-28T05:34:00;5.37;;;1.73;;
75311;SDS011;63906;55.686;37.532;2023-02-28T05:39:01;2.20;;;1.63;;
75311;SDS011;63906;55.686;37.532;2023-02-28T05:44:03;2.35;;;0.82;;
75311;SDS011;63906;55.686;37.532;2023-02-28T05:49:03;5.10;;;2.08;;
75311;SDS011;63906;55.686;37.532;2023-02-28T05:54:07;3.72;;;1.60;;
75311;SDS011;63906;55.686;37.532;2023-02-28T05:59:08;3.45;;;2.03;;
75311;SDS011;63906;55.686;37.532;2023-02-28T06:04:12;3.35;;;1.60;;
75311;SDS011;63906;55.686;37.532;2023-02-28T06:09:15;3.85;;;1.90;;
75311;SDS011;63906;55.686;37.532;2023-02-28T06:14:18;3.88;;;2.00;;
75311;SDS011;63906;55.686;37.532;2023-02-28T06:19:19;4.30;;;1.95;;
75311;SDS011;63906;55.686;37.532;2023-02-28T06:24:23;3.05;;;1.30;;
75311;SDS011;63906;55.686;37.532;2023-02-28T06:29:25;3.70;;;1.80;;
75311;SDS011;63906;55.686;37.532;2023-02-28T06:34:25;2.83;;;1.75;;
75311;SDS011;63906;55.686;37.532;2023-02-28T06:39:26;1.17;;;0.85;;
75311;SDS011;63906;55.686;37.532;2023-02-28T06:44:26;1.13;;;0.60;;
75311;SDS011;63906;55.686;37.532;2023-02-28T06:49:27;2.95;;;1.88;;
75311;SDS011;63906;55.686;37.532;2023-02-28T06:54:27;2.88;;;1.90;;
75311;SDS011;63906;55.686;37.532;2023-02-28T06:59:28;3.75;;;2.20;;
75311;SDS011;63906;55.686;37.532;2023-02-28T07:04:29;3.28;;;1.92;;
75311;SDS011;63906;55.686;37.532;2023-02-28T07:09:29;3.50;;;1.70;;
75311;SDS011;63906;55.686;37.532;2023-02-28T07:14:30;3.90;;;1.67;;
75311;SDS011;63906;55.686;37.532;2023-02-28T07:19:30;3.78;;;1.98;;
75311;SDS011;63906;55.686;37.532;2023-02-28T07:24:31;3.40;;;2.25;;
75311;SDS011;63906;55.686;37.532;2023-02-28T07:29:32;2.78;;;1.58;;
75311;SDS011;63906;55.686;37.532;2023-02-28T07:34:32;2.13;;;1.35;;
75311;SDS011;63906;55.686;37.532;2023-02-28T07:39:33;2.38;;;0.80;;
75311;SDS011;63906;55.686;37.532;2023-02-28T07:44:33;4.13;;;2.43;;
75311;SDS011;63906;55.686;37.532;2023-02-28T07:49:35;3.75;;;2.15;;
75311;SDS011;63906;55.686;37.532;2023-02-28T07:54:36;2.38;;;0.98;;
75311;SDS011;63906;55.686;37.532;2023-02-28T07:59:36;2.50;;;1.30;;
75311;SDS011;63906;55.686;37.532;2023-02-28T08:04:37;2.60;;;1.38;;
75311;SDS011;63906;55.686;37.532;2023-02-28T08:09:41;3.10;;;1.80;;
75311;SDS011;63906;55.686;37.532;2023-02-28T08:14:42;4.63;;;2.08;;
75311;SDS011;63906;55.686;37.532;2023-02-28T08:19:46;5.07;;;2.30;;
75311;SDS011;63906;55.686;37.532;2023-02-28T08:24:47;5.18;;;1.60;;
75311;SDS011;63906;55.686;37.532;2023-02-28T08:29:47;5.60;;;2.13;;
75311;SDS011;63906;55.686;37.532;2023-02-28T08:34:48;4.70;;;2.45;;
75311;SDS011;63906;55.686;37.532;2023-02-28T08:39:49;2.45;;;1.25;;
75311;SDS011;63906;55.686;37.532;2023-02-28T08:44:49;2.28;;;1.52;;
75311;SDS011;63906;55.686;37.532;2023-02-28T08:49:50;2.85;;;1.40;;
75311;SDS011;63906;55.686;37.532;2023-02-28T08:54:50;1.87;;;1.10;;
75311;SDS011;63906;55.686;37.532;2023-02-28T08:59:51;6.90;;;2.03;;
75311;SDS011;63906;55.686;37.532;2023-02-28T09:04:51;4.28;;;1.60;;
75311;SDS011;63906;55.686;37.532;2023-02-28T09:09:52;2.92;;;1.45;;
75311;SDS011;63906;55.686;37.532;2023-02-28T09:14:55;3.30;;;2.13;;
75311;SDS011;63906;55.686;37.532;2023-02-28T09:19:56;4.10;;;2.05;;
75311;SDS011;63906;55.686;37.532;2023-02-28T09:24:57;4.43;;;2.03;;
75311;SDS011;63906;55.686;37.532;2023-02-28T09:29:57;3.30;;;1.20;;
75311;SDS011;63906;55.686;37.532;2023-02-28T09:34:58;2.38;;;1.92;;
75311;SDS011;63906;55.686;37.532;2023-02-28T09:39:58;4.87;;;2.03;;
75311;SDS011;63906;55.686;37.532;2023-02-28T09:45:00;1.75;;;1.30;;
75311;SDS011;63906;55.686;37.532;2023-02-28T09:50:30;3.45;;;1.33;;
75311;SDS011;63906;55.686;37.532;2023-02-28T10:00:34;2.72;;;1.58;;
75311;SDS011;63906;55.686;37.532;2023-02-28T10:11:17;4.55;;;1.75;;
75311;SDS011;63906;55.686;37.532;2023-02-28T10:16:22;2.03;;;0.98;;
75311;SDS011;63906;55.686;37.532;2023-02-28T10:21:32;3.85;;;1.95;;
75311;SDS011;63906;55.686;37.532;2023-02-28T10:26:41;1.70;;;1.20;;
75311;SDS011;63906;55.686;37.532;2023-02-28T10:31:45;2.67;;;1.30;;
75311;SDS011;63906;55.686;37.532;2023-02-28T10:36:45;3.22;;;1.50;;
75311;SDS011;63906;55.686;37.532;2023-02-28T10:41:47;4.75;;;1.83;;
75311;SDS011;63906;55.686;37.532;2023-02-28T10:46:48;1.40;;;1.10;;
75311;SDS011;63906;55.686;37.532;2023-02-28T10:51:51;2.97;;;1.88;;
75311;SDS011;63906;55.686;37.532;2023-02-28T11:02:50;1.45;;;1.10;;
75311;SDS011;63906;55.686;37.532;2023-02-28T11:07:37;3.58;;;1.58;;
75311;SDS011;63906;55.686;37.532;2023-02-28T11:12:39;4.15;;;2.55;;
75311;SDS011;63906;55.686;37.532;2023-02-28T11:17:43;4.55;;;2.28;;
75311;SDS011;63906;55.686;37.532;2023-02-28T11:22:43;3.42;;;1.30;;
75311;SDS011;63906;55.686;37.532;2023-02-28T11:27:47;2.58;;;1.40;;
75311;SDS011;63906;55.686;37.532;2023-02-28T11:32:49;3.42;;;2.25;;
75311;SDS011;63906;55.686;37.532;2023-02-28T11:37:50;3.65;;;1.60;;
75311;SDS011;63906;55.686;37.532;2023-02-28T11:42:57;5.57;;;2.70;;
75311;SDS011;63906;55.686;37.532;2023-02-28T11:54:01;1.38;;;0.57;;
75311;SDS011;63906;55.686;37.532;2023-02-28T11:59:02;2.03;;;0.90;;
75311;SDS011;63906;55.686;37.532;2023-02-28T12:04:11;3.45;;;2.17;;
75311;SDS011;63906;55.686;37.532;2023-02-28T12:09:40;3.92;;;1.77;;
75311;SDS011;63906;55.686;37.532;2023-02-28T12:25:36;1.63;;;0.93;;
75311;SDS011;63906;55.686;37.532;2023-02-28T12:30:52;2.50;;;1.05;;
75311;SDS011;63906;55.686;37.532;2023-02-28T12:36:05;3.97;;;2.53;;
75311;SDS011;63906;55.686;37.532;2023-02-28T12:41:15;6.05;;;2.58;;
75311;SDS011;63906;55.686;37.532;2023-02-28T12:46:22;5.07;;;2.95;;
75311;SDS011;63906;55.686;37.532;2023-02-28T12:51:25;3.58;;;1.83;;
75311;SDS011;63906;55.686;37.532;2023-02-28T12:56:43;1.27;;;0.57;;
75311;SDS011;63906;55.686;37.532;2023-02-28T13:12:22;3.08;;;1.50;;
75311;SDS011;63906;55.686;37.532;2023-02-28T13:17:23;1.77;;;1.20;;
75311;SDS011;63906;55.686;37.532;2023-02-28T13:27:36;3.17;;;2.05;;
75311;SDS011;63906;55.686;37.532;2023-02-28T13:32:39;3.92;;;2.13;;
75311;SDS011;63906;55.686;37.532;2023-02-28T13:37:43;1.92;;;1.10;;
75311;SDS011;63906;55.686;37.532;2023-02-28T13:42:48;4.05;;;2.35;;
75311;SDS011;63906;55.686;37.532;2023-02-28T13:47:59;4.43;;;2.65;;
75311;SDS011;63906;55.686;37.532;2023-02-28T14:19:45;2.13;;;1.03;;
75311;SDS011;63906;55.686;37.532;2023-02-28T14:40:55;3.70;;;2.13;;
75311;SDS011;63906;55.686;37.532;2023-02-28T14:45:59;2.60;;;0.63;;
75311;SDS011;63906;55.686;37.532;2023-02-28T14:51:01;2.55;;;1.75;;
75311;SDS011;63906;55.686;37.532;2023-02-28T14:56:02;2.88;;;1.02;;
75311;SDS011;63906;55.686;37.532;2023-02-28T15:01:04;2.90;;;1.85;;
75311;SDS011;63906;55.686;37.532;2023-02-28T15:06:15;2.95;;;2.08;;
75311;SDS011;63906;55.686;37.532;2023-02-28T15:11:17;4.55;;;2.00;;
75311;SDS011;63906;55.686;37.532;2023-02-28T15:16:23;1.95;;;1.17;;
75311;SDS011;63906;55.686;37.532;2023-02-28T15:26:30;2.33;;;1.27;;
75311;SDS011;63906;55.686;37.532;2023-02-28T15:31:35;1.73;;;0.88;;
75311;SDS011;63906;55.686;37.532;2023-02-28T15:36:41;0.60;;;0.60;;
75311;SDS011;63906;55.686;37.532;2023-02-28T15:41:41;3.47;;;1.92;;
75311;SDS011;63906;55.686;37.532;2023-02-28T15:46:43;2.40;;;1.42;;
75311;SDS011;63906;55.686;37.532;2023-02-28T15:51:56;1.30;;;0.98;;
75311;SDS011;63906;55.686;37.532;2023-02-28T15:57:03;2.47;;;1.40;;
75311;SDS011;63906;55.686;37.532;2023-02-28T16:07:20;1.27;;;0.95;;
75311;SDS011;63906;55.686;37.532;2023-02-28T16:12:23;1.10;;;0.57;;
75311;SDS011;63906;55.686;37.532;2023-02-28T16:17:27;2.05;;;1.45;;
75311;SDS011;63906;55.686;37.532;2023-02-28T16:22:30;2.58;;;1.17;;
75311;SDS011;63906;55.686;37.532;2023-02-28T16:27:31;2.93;;;1.43;;
75311;SDS011;63906;55.686;37.532;2023-02-28T16:32:36;3.85;;;1.92;;
75311;SDS011;63906;55.686;37.532;2023-02-28T16:37:36;1.48;;;0.93;;
75311;SDS011;63906;55.686;37.532;2023-02-28T16:42:37;3.30;;;1.83;;
75311;SDS011;63906;55.686;37.532;2023-02-28T16:47:39;2.42;;;1.30;;
75311;SDS011;63906;55.686;37.532;2023-02-28T16:52:39;2.85;;;1.90;;
75311;SDS011;63906;55.686;37.532;2023-02-28T16:57:40;4.25;;;1.00;;
75311;SDS011;63906;55.686;37.532;2023-02-28T17:02:41;1.10;;;0.95;;
75311;SDS011;63906;55.686;37.532;2023-02-28T17:07:41;2.70;;;1.10;;
75311;SDS011;63906;55.686;37.532;2023-02-28T17:12:42;2.20;;;1.42;;
75311;SDS011;63906;55.686;37.532;2023-02-28T17:17:44;2.03;;;0.85;;
75311;SDS011;63906;55.686;37.532;2023-02-28T17:22:45;1.42;;;1.15;;
75311;SDS011;63906;55.686;37.532;2023-02-28T17:27:46;2.22;;;1.00;;
75311;SDS011;63906;55.686;37.532;2023-02-28T17:32:54;0.55;;;0.40;;
75311;SDS011;63906;55.686;37.532;2023-02-28T17:37:55;0.75;;;0.40;;
75311;SDS011;63906;55.686;37.532;2023-02-28T17:42:56;0.57;;;0.50;;
75311;SDS011;63906;55.686;37.532;2023-02-28T17:47:59;1.38;;;0.52;;
75311;SDS011;63906;55.686;37.532;2023-02-28T17:52:59;0.40;;;0.20;;
75311;SDS011;63906;55.686;37.532;2023-02-28T17:58:00;0.60;;;0.30;;
75311;SDS011;63906;55.686;37.532;2023-02-28T18:03:02;2.47;;;1.27;;
75311;SDS011;63906;55.686;37.532;2023-02-28T18:08:03;2.72;;;1.30;;
75311;SDS011;63906;55.686;37.532;2023-02-28T18:13:04;1.38;;;0.45;;
75311;SDS011;63906;55.686;37.532;2023-02-28T18:18:05;1.15;;;0.30;;
75311;SDS011;63906;55.686;37.532;2023-02-28T18:23:06;1.75;;;0.90;;
75311;SDS011;63906;55.686;37.532;2023-02-28T18:28:07;0.75;;;0.30;;
75311;SDS011;63906;55.686;37.532;2023-02-28T18:33:07;1.48;;;0.30;;
75311;SDS011;63906;55.686;37.532;2023-02-28T18:38:13;0.28;;;0.22;;
75311;SDS011;63906;55.686;37.532;2023-02-28T18:43:15;0.45;;;0.28;;
75311;SDS011;63906;55.686;37.532;2023-02-28T18:48:16;3.30;;;0.40;;
75311;SDS011;63906;55.686;37.532;2023-02-28T18:53:18;0.90;;;0.20;;
75311;SDS011;63906;55.686;37.532;2023-02-28T18:58:19;1.55;;;0.10;;
75311;SDS011;63906;55.686;37.532;2023-02-28T19:03:19;2.45;;;0.50;;
75311;SDS011;63906;55.686;37.532;2023-02-28T19:08:20;0.45;;;0.32;;
75311;SDS011;63906;55.686;37.532;2023-02-28T19:13:21;0.73;;;0.45;;
75311;SDS011;63906;55.686;37.532;2023-02-28T19:18:21;0.97;;;0.30;;
75311;SDS011;63906;55.686;37.532;2023-02-28T19:23:23;0.88;;;0.40;;
75311;SDS011;63906;55.686;37.532;2023-02-28T19:28:28;0.63;;;0.32;;
75311;SDS011;63906;55.686;37.532;2023-02-28T19:33:29;1.75;;;0.43;;
75311;SDS011;63906;55.686;37.532;2023-02-28T19:38:30;1.35;;;0.30;;
75311;SDS011;63906;55.686;37.532;2023-02-28T19:43:31;2.07;;;0.33;;
75311;SDS011;63906;55.686;37.532;2023-02-28T19:48:31;0.00;;;0.00;;
75311;SDS011;63906;55.686;37.532;2023-02-28T19:53:33;1.20;;;0.40;;
75311;SDS011;63906;55.686;37.532;2023-02-28T19:58:37;0.43;;;0.25;;
75311;SDS011;63906;55.686;37.532;2023-02-28T20:03:38;0.10;;;0.10;;
75311;SDS011;63906;55.686;37.532;2023-02-28T20:08:39;0.15;;;0.10;;
75311;SDS011;63906;55.686;37.532;2023-02-28T20:13:40;0.30;;;0.30;;
75311;SDS011;63906;55.686;37.532;2023-02-28T20:18:41;0.05;;;0.05;;
75311;SDS011;63906;55.686;37.532;2023-02-28T20:23:44;1.48;;;0.35;;
75311;SDS011;63906;55.686;37.532;2023-02-28T20:28:46;0.65;;;0.45;;
75311;SDS011;63906;55.686;37.532;2023-02-28T20:33:47;0.30;;;0.15;;
75311;SDS011;63906;55.686;37.532;2023-02-28T20:38:49;2.33;;;0.30;;
75311;SDS011;63906;55.686;37.532;2023-02-28T20:43:54;0.05;;;0.05;;
75311;SDS011;63906;55.686;37.532;2023-02-28T20:48:57;0.20;;;0.10;;
75311;SDS011;63906;55.686;37.532;2023-02-28T20:53:57;0.20;;;0.20;;
75311;SDS011;63906;55.686;37.532;2023-02-28T20:58:58;0.35;;;0.13;;
75311;SDS011;63906;55.686;37.532;2023-02-28T21:04:00;0.65;;;0.20;;
75311;SDS011;63906;55.686;37.532;2023-02-28T21:09:03;0.00;;;0.00;;
75311;SDS011;63906;55.686;37.532;2023-02-28T21:14:13;0.10;;;0.10;;
75311;SDS011;63906;55.686;37.532;2023-02-28T21:19:15;0.30;;;0.30;;
75311;SDS011;63906;55.686;37.532;2023-02-28T21:24:18;0.93;;;0.20;;
75311;SDS011;63906;55.686;37.532;2023-02-28T21:29:19;0.40;;;0.20;;
75311;SDS011;63906;55.686;37.532;2023-02-28T21:34:19;0.10;;;0.10;;
75311;SDS011;63906;55.686;37.532;2023-02-28T21:39:21;1.48;;;0.40;;
75311;SDS011;63906;55.686;37.532;2023-02-28T21:44:24;0.15;;;0.10;;
75311;SDS011;63906;55.686;37.532;2023-02-28T21:49:27;1.75;;;0.25;;
75311;SDS011;63906;55.686;37.532;2023-02-28T21:54:28;0.30;;;0.10;;
75311;SDS011;63906;55.686;37.532;2023-02-28T21:59:28;0.45;;;0.10;;
75311;SDS011;63906;55.686;37.532;2023-02-28T22:04:29;0.20;;;0.10;;
75311;SDS011;63906;55.686;37.532;2023-02-28T22:09:30;1.15;;;0.43;;
75311;SDS011;63906;55.686;37.532;2023-02-28T22:14:31;1.15;;;0.40;;
75311;SDS011;63906;55.686;37.532;2023-02-28T22:19:32;0.55;;;0.20;;
75311;SDS011;63906;55.686;37.532;2023-02-28T22:24:32;0.20;;;0.20;;
75311;SDS011;63906;55.686;37.532;2023-02-28T22:29:33;0.60;;;0.23;;
75311;SDS011;63906;55.686;37.532;2023-02-28T22:34:33;0.20;;;0.10;;
75311;SDS011;63906;55.686;37.532;2023-02-28T22:39:34;0.98;;;0.20;;
75311;SDS011;63906;55.686;37.532;2023-02-28T22:44:35;0.80;;;0.80;;
75311;SDS011;63906;55.686;37.532;2023-02-28T22:49:35;1.85;;;0.22;;
75311;SDS011;63906;55.686;37.532;2023-02-28T22:54:36;0.20;;;0.20;;
75311;SDS011;63906;55.686;37.532;2023-02-28T22:59:36;1.45;;;0.10;;
75311;SDS011;63906;55.686;37.532;2023-02-28T23:04:37;0.38;;;0.20;;
75311;SDS011;63906;55.686;37.532;2023-02-28T23:09:37;0.43;;;0.20;;
75311;SDS011;63906;55.686;37.532;2023-02-28T23:14:38;0.47;;;0.30;;
75311;SDS011;63906;55.686;37.532;2023-02-28T23:19:38;0.30;;;0.30;;
75311;SDS011;63906;55.686;37.532;2023-02-28T23:24:39;0.15;;;0.08;;
75311;SDS011;63906;55.686;37.532;2023-02-28T23:29:40;0.00;;;0.00;;
75311;SDS011;63906;55.686;37.532;2023-02-28T23:34:41;1.83;;;0.50;;
75311;SDS011;63906;55.686;37.532;2023-02-28T23:39:41;0.65;;;0.10;;
75311;SDS011;63906;55.686;37.532;2023-02-28T23:44:42;1.13;;;0.25;;
75311;SDS011;63906;55.686;37.532;2023-02-28T23:49:42;0.40;;;0.20;;
75311;SDS011;63906;55.686;37.532;2023-02-28T23:54:43;1.35;;;0.30;;
75311;SDS011;63906;55.686;37.532;2023-02-28T23:59:44;2.20;;;0.30;;
